sensor_id;sensor_type;location;lat;lon;timestamp;temperature;humidity
7194;DHT22;3638;48.820;9.244;2023-03-01T00:00:19;-0.40;99.90
7194;DHT22;3638;48.820;9.244;2023-03-01T00:02:46;-0.50;99.90
7194;DHT22;3638;48.820;9.244;2023-03-01T00:05:13;-0.50;99.90
7194;DHT22;3638;48.820;9.244;2023-03-01T00:07:41;-0.50;99.90
7194;DHT22;3638;48.820;9.244;2023-03-01T00:10:09;-0.60;99.90
7194;DHT22;3638;48.820;9.244;2023-03-01T00:12:37;-0.70;99.90
7194;DHT22;3638;48.820;9.244;2023-03-01T00:15:05;-0.80;99.90
7194;DHT22;3638;48.820;9.244;2023-03-01T00:17:32;-0.80;99.90
7194;DHT22;3638;48.820;9.244;2023-03-01T00:19:59;-0.70;99.90
7194;DHT22;3638;48.820;9.244;2023-03-01T00:22:26;-0.60;99.90
7194;DHT22;3638;48.820;9.244;2023-03-01T00:24:55;-0.60;99.90
7194;DHT22;3638;48.820;9.244;2023-03-01T00:27:22;-0.70;99.90
7194;DHT22;3638;48.820;9.244;2023-03-01T00:29:49;-0.60;99.90
7194;DHT22;3638;48.820;9.244;2023-03-01T00:32:16;-0.60;99.90
7194;DHT22;3638;48.820;9.244;2023-03-01T00:34:43;-0.50;99.90
7194;DHT22;3638;48.820;9.244;2023-03-01T00:37:19;-0.60;99.90
7194;DHT22;3638;48.820;9.244;2023-03-01T00:39:46;-0.50;99.90
7194;DHT22;3638;48.820;9.244;2023-03-01T00:42:15;-0.50;99.90
7194;DHT22;3638;48.820;9.244;2023-03-01T00:44:42;-0.40;99.90
7194;DHT22;3638;48.820;9.244;2023-03-01T00:47:09;-0.50;99.90
7194;DHT22;3638;48.820;9.244;2023-03-01T00:49:36;-0.50;99.90
7194;DHT22;3638;48.820;9.244;2023-03-01T00:52:03;-0.60;99.90
7194;DHT22;3638;48.820;9.244;2023-03-01T00:54:30;-0.50;99.90
7194;DHT22;3638;48.820;9.244;2023-03-01T00:56:57;1.50;99.90
7194;DHT22;3638;48.820;9.244;2023-03-01T00:59:26;-0.50;99.90
7194;DHT22;3638;48.820;9.244;2023-03-01T01:01:52;-0.50;99.90
7194;DHT22;3638;48.820;9.244;2023-03-01T01:04:19;-0.60;99.90
7194;DHT22;3638;48.820;9.244;2023-03-01T01:06:46;-0.60;99.90
7194;DHT22;3638;48.820;9.244;2023-03-01T01:09:15;-0.70;99.90
7194;DHT22;3638;48.820;9.244;2023-03-01T01:11:43;-0.80;99.90
7194;DHT22;3638;48.820;9.244;2023-03-01T01:14:10;-0.80;99.90
7194;DHT22;3638;48.820;9.244;2023-03-01T01:16:39;-0.70;99.90
7194;DHT22;3638;48.820;9.244;2023-03-01T01:19:06;-0.70;99.90
7194;DHT22;3638;48.820;9.244;2023-03-01T01:21:33;-0.80;99.90
7194;DHT22;3638;48.820;9.244;2023-03-01T01:24:02;-0.70;99.90
7194;DHT22;3638;48.820;9.244;2023-03-01T01:26:32;-0.70;99.90
7194;DHT22;3638;48.820;9.244;2023-03-01T01:29:03;-0.70;99.90
7194;DHT22;3638;48.820;9.244;2023-03-01T01:31:32;-0.60;99.90
7194;DHT22;3638;48.820;9.244;2023-03-01T01:34:03;-0.50;99.90
7194;DHT22;3638;48.820;9.244;2023-03-01T01:36:32;-0.40;99.90
7194;DHT22;3638;48.820;9.244;2023-03-01T01:38:59;-0.40;99.90
7194;DHT22;3638;48.820;9.244;2023-03-01T01:41:28;-0.40;99.90
7194;DHT22;3638;48.820;9.244;2023-03-01T01:44:14;-0.30;99.90
7194;DHT22;3638;48.820;9.244;2023-03-01T01:46:44;-0.40;99.90
7194;DHT22;3638;48.820;9.244;2023-03-01T01:49:22;-0.40;99.90
7194;DHT22;3638;48.820;9.244;2023-03-01T01:51:57;-0.40;99.90
7194;DHT22;3638;48.820;9.244;2023-03-01T01:54:32;-0.30;99.90
7194;DHT22;3638;48.820;9.244;2023-03-01T01:57:13;-0.30;99.90
7194;DHT22;3638;48.820;9.244;2023-03-01T01:59:45;-0.30;99.90
7194;DHT22;3638;48.820;9.244;2023-03-01T02:02:14;-0.30;99.90
7194;DHT22;3638;48.820;9.244;2023-03-01T02:04:43;-0.20;99.90
7194;DHT22;3638;48.820;9.244;2023-03-01T02:07:14;-0.20;99.90
7194;DHT22;3638;48.820;9.244;2023-03-01T02:09:45;-0.20;99.90
7194;DHT22;3638;48.820;9.244;2023-03-01T02:12:14;-0.20;99.90
7194;DHT22;3638;48.820;9.244;2023-03-01T02:14:42;-0.10;99.90
7194;DHT22;3638;48.820;9.244;2023-03-01T02:17:09;-0.10;99.90
7194;DHT22;3638;48.820;9.244;2023-03-01T02:19:47;0.10;99.90
7194;DHT22;3638;48.820;9.244;2023-03-01T02:22:22;0.10;99.90
7194;DHT22;3638;48.820;9.244;2023-03-01T02:25:02;0.10;99.90
7194;DHT22;3638;48.820;9.244;2023-03-01T02:27:45;0.10;99.90
7194;DHT22;3638;48.820;9.244;2023-03-01T02:30:18;0.10;99.90
7194;DHT22;3638;48.820;9.244;2023-03-01T02:32:46;0.20;99.90
7194;DHT22;3638;48.820;9.244;2023-03-01T02:35:14;0.20;99.90
7194;DHT22;3638;48.820;9.244;2023-03-01T02:37:43;0.20;99.90
7194;DHT22;3638;48.820;9.244;2023-03-01T02:40:13;0.10;99.90
7194;DHT22;3638;48.820;9.244;2023-03-01T02:42:48;0.20;99.90
7194;DHT22;3638;48.820;9.244;2023-03-01T02:45:19;0.20;99.90
7194;DHT22;3638;48.820;9.244;2023-03-01T02:47:46;0.10;99.90
7194;DHT22;3638;48.820;9.244;2023-03-01T02:50:22;0.20;99.90
7194;DHT22;3638;48.820;9.244;2023-03-01T02:53:12;0.30;99.90
7194;DHT22;3638;48.820;9.244;2023-03-01T02:55:43;0.30;99.90
7194;DHT22;3638;48.820;9.244;2023-03-01T02:58:10;0.30;99.90
7194;DHT22;3638;48.820;9.244;2023-03-01T03:00:42;0.20;99.90
7194;DHT22;3638;48.820;9.244;2023-03-01T03:03:13;0.20;99.90
7194;DHT22;3638;48.820;9.244;2023-03-01T03:05:41;0.30;99.90
7194;DHT22;3638;48.820;9.244;2023-03-01T03:08:08;0.30;99.90
7194;DHT22;3638;48.820;9.244;2023-03-01T03:10:38;0.30;99.90
7194;DHT22;3638;48.820;9.244;2023-03-01T03:13:08;0.30;99.90
7194;DHT22;3638;48.820;9.244;2023-03-01T03:15:36;0.30;99.90
7194;DHT22;3638;48.820;9.244;2023-03-01T03:18:09;0.30;99.90
7194;DHT22;3638;48.820;9.244;2023-03-01T03:20:37;0.30;99.90
7194;DHT22;3638;48.820;9.244;2023-03-01T03:23:06;0.30;99.90
7194;DHT22;3638;48.820;9.244;2023-03-01T03:25:33;0.30;99.90
7194;DHT22;3638;48.820;9.244;2023-03-01T03:28:03;0.40;99.90
7194;DHT22;3638;48.820;9.244;2023-03-01T03:30:36;0.30;99.90
7194;DHT22;3638;48.820;9.244;2023-03-01T03:33:06;0.30;99.90
7194;DHT22;3638;48.820;9.244;2023-03-01T03:35:39;0.30;99.90
7194;DHT22;3638;48.820;9.244;2023-03-01T03:38:09;0.40;99.90
7194;DHT22;3638;48.820;9.244;2023-03-01T03:40:42;0.30;99.90
7194;DHT22;3638;48.820;9.244;2023-03-01T03:43:12;0.40;99.90
7194;DHT22;3638;48.820;9.244;2023-03-01T03:45:40;0.50;99.90
7194;DHT22;3638;48.820;9.244;2023-03-01T03:48:09;0.40;99.90
7194;DHT22;3638;48.820;9.244;2023-03-01T03:50:37;0.50;99.90
7194;DHT22;3638;48.820;9.244;2023-03-01T03:53:06;0.60;99.90
7194;DHT22;3638;48.820;9.244;2023-03-01T03:55:34;0.60;99.90
7194;DHT22;3638;48.820;9.244;2023-03-01T03:58:05;0.50;99.90
7194;DHT22;3638;48.820;9.244;2023-03-01T04:00:35;0.50;99.90
7194;DHT22;3638;48.820;9.244;2023-03-01T04:03:03;0.50;99.90
7194;DHT22;3638;48.820;9.244;2023-03-01T04:05:31;0.50;99.90
7194;DHT22;3638;48.820;9.244;2023-03-01T04:07:59;0.60;99.90
7194;DHT22;3638;48.820;9.244;2023-03-01T04:10:29;0.60;99.90
7194;DHT22;3638;48.820;9.244;2023-03-01T04:13:00;0.70;99.90
7194;DHT22;3638;48.820;9.244;2023-03-01T04:15:27;0.80;99.90
7194;DHT22;3638;48.820;9.244;2023-03-01T04:17:55;0.90;99.90
7194;DHT22;3638;48.820;9.244;2023-03-01T04:20:24;0.80;99.90
7194;DHT22;3638;48.820;9.244;2023-03-01T04:22:57;0.80;99.90
7194;DHT22;3638;48.820;9.244;2023-03-01T04:25:25;0.70;99.90
7194;DHT22;3638;48.820;9.244;2023-03-01T04:27:52;0.70;99.90
7194;DHT22;3638;48.820;9.244;2023-03-01T04:32:50;0.80;99.90
7194;DHT22;3638;48.820;9.244;2023-03-01T04:35:17;0.80;99.90
7194;DHT22;3638;48.820;9.244;2023-03-01T04:37:44;0.70;99.90
7194;DHT22;3638;48.820;9.244;2023-03-01T04:40:13;0.80;99.90
7194;DHT22;3638;48.820;9.244;2023-03-01T04:42:42;0.80;99.90
7194;DHT22;3638;48.820;9.244;2023-03-01T04:45:09;0.70;99.90
7194;DHT22;3638;48.820;9.244;2023-03-01T04:47:39;0.70;99.90
7194;DHT22;3638;48.820;9.244;2023-03-01T04:50:08;0.70;99.90
7194;DHT22;3638;48.820;9.244;2023-03-01T04:52:36;0.80;99.90
7194;DHT22;3638;48.820;9.244;2023-03-01T04:55:03;0.70;99.90
7194;DHT22;3638;48.820;9.244;2023-03-01T04:57:33;0.60;99.90
7194;DHT22;3638;48.820;9.244;2023-03-01T05:00:00;0.60;99.90
7194;DHT22;3638;48.820;9.244;2023-03-01T05:02:28;0.70;99.90
7194;DHT22;3638;48.820;9.244;2023-03-01T05:04:55;0.70;99.90
7194;DHT22;3638;48.820;9.244;2023-03-01T05:07:23;0.80;99.90
7194;DHT22;3638;48.820;9.244;2023-03-01T05:09:51;0.80;99.90
7194;DHT22;3638;48.820;9.244;2023-03-01T05:12:18;0.80;99.90
7194;DHT22;3638;48.820;9.244;2023-03-01T05:14:46;0.80;99.90
7194;DHT22;3638;48.820;9.244;2023-03-01T05:17:13;0.90;99.90
7194;DHT22;3638;48.820;9.244;2023-03-01T05:19:40;0.90;99.90
7194;DHT22;3638;48.820;9.244;2023-03-01T05:22:08;0.80;99.90
7194;DHT22;3638;48.820;9.244;2023-03-01T05:24:35;0.80;99.90
7194;DHT22;3638;48.820;9.244;2023-03-01T05:27:04;0.70;99.90
7194;DHT22;3638;48.820;9.244;2023-03-01T05:29:32;0.70;99.90
7194;DHT22;3638;48.820;9.244;2023-03-01T05:32:02;0.70;99.90
7194;DHT22;3638;48.820;9.244;2023-03-01T05:34:31;0.80;99.90
7194;DHT22;3638;48.820;9.244;2023-03-01T05:36:59;0.80;99.90
7194;DHT22;3638;48.820;9.244;2023-03-01T05:39:28;0.90;99.90
7194;DHT22;3638;48.820;9.244;2023-03-01T05:41:56;0.80;99.90
7194;DHT22;3638;48.820;9.244;2023-03-01T05:44:25;0.70;99.90
7194;DHT22;3638;48.820;9.244;2023-03-01T05:46:53;0.80;99.90
7194;DHT22;3638;48.820;9.244;2023-03-01T05:49:22;0.80;99.90
7194;DHT22;3638;48.820;9.244;2023-03-01T05:51:50;0.80;99.90
7194;DHT22;3638;48.820;9.244;2023-03-01T05:54:19;0.70;99.90
7194;DHT22;3638;48.820;9.244;2023-03-01T05:56:47;0.60;99.90
7194;DHT22;3638;48.820;9.244;2023-03-01T05:59:14;0.70;99.90
7194;DHT22;3638;48.820;9.244;2023-03-01T06:01:42;0.80;99.90
7194;DHT22;3638;48.820;9.244;2023-03-01T06:04:09;0.80;99.90
7194;DHT22;3638;48.820;9.244;2023-03-01T06:06:37;0.70;99.90
7194;DHT22;3638;48.820;9.244;2023-03-01T06:09:04;0.60;99.90
7194;DHT22;3638;48.820;9.244;2023-03-01T06:11:33;0.60;99.90
7194;DHT22;3638;48.820;9.244;2023-03-01T06:14:00;0.60;99.90
7194;DHT22;3638;48.820;9.244;2023-03-01T06:16:27;0.70;99.90
7194;DHT22;3638;48.820;9.244;2023-03-01T06:18:54;0.60;99.90
7194;DHT22;3638;48.820;9.244;2023-03-01T06:21:21;0.50;99.90
7194;DHT22;3638;48.820;9.244;2023-03-01T06:23:49;0.40;99.90
7194;DHT22;3638;48.820;9.244;2023-03-01T06:26:17;0.40;99.90
7194;DHT22;3638;48.820;9.244;2023-03-01T06:28:44;0.40;99.90
7194;DHT22;3638;48.820;9.244;2023-03-01T06:31:12;0.40;99.90
7194;DHT22;3638;48.820;9.244;2023-03-01T06:33:39;0.50;99.90
7194;DHT22;3638;48.820;9.244;2023-03-01T06:36:07;0.50;99.90
7194;DHT22;3638;48.820;9.244;2023-03-01T06:38:35;0.60;99.90
7194;DHT22;3638;48.820;9.244;2023-03-01T06:41:04;0.80;99.90
7194;DHT22;3638;48.820;9.244;2023-03-01T06:43:30;0.70;99.90
7194;DHT22;3638;48.820;9.244;2023-03-01T06:45:57;0.70;99.90
7194;DHT22;3638;48.820;9.244;2023-03-01T06:48:24;0.70;99.90
7194;DHT22;3638;48.820;9.244;2023-03-01T06:50:51;0.80;99.90
7194;DHT22;3638;48.820;9.244;2023-03-01T06:53:18;0.90;99.90
7194;DHT22;3638;48.820;9.244;2023-03-01T06:55:45;0.90;99.90
7194;DHT22;3638;48.820;9.244;2023-03-01T06:58:13;1.00;99.90
7194;DHT22;3638;48.820;9.244;2023-03-01T07:00:40;1.00;99.90
7194;DHT22;3638;48.820;9.244;2023-03-01T07:03:08;1.20;99.90
7194;DHT22;3638;48.820;9.244;2023-03-01T07:05:35;1.20;99.90
7194;DHT22;3638;48.820;9.244;2023-03-01T07:08:02;1.30;99.90
7194;DHT22;3638;48.820;9.244;2023-03-01T07:10:29;1.30;99.90
7194;DHT22;3638;48.820;9.244;2023-03-01T07:12:57;1.40;99.90
7194;DHT22;3638;48.820;9.244;2023-03-01T07:15:26;1.60;99.90
7194;DHT22;3638;48.820;9.244;2023-03-01T07:17:53;1.70;99.90
7194;DHT22;3638;48.820;9.244;2023-03-01T07:20:21;1.60;99.90
7194;DHT22;3638;48.820;9.244;2023-03-01T07:22:50;1.60;99.90
7194;DHT22;3638;48.820;9.244;2023-03-01T07:25:17;1.60;99.90
7194;DHT22;3638;48.820;9.244;2023-03-01T07:27:49;1.80;99.90
7194;DHT22;3638;48.820;9.244;2023-03-01T07:30:17;1.90;99.90
7194;DHT22;3638;48.820;9.244;2023-03-01T07:32:45;2.00;99.90
7194;DHT22;3638;48.820;9.244;2023-03-01T07:35:12;2.00;99.90
7194;DHT22;3638;48.820;9.244;2023-03-01T07:37:40;2.00;99.90
7194;DHT22;3638;48.820;9.244;2023-03-01T07:40:08;1.90;99.90
7194;DHT22;3638;48.820;9.244;2023-03-01T07:42:35;1.80;99.90
7194;DHT22;3638;48.820;9.244;2023-03-01T07:45:03;1.90;99.90
7194;DHT22;3638;48.820;9.244;2023-03-01T07:47:32;2.10;99.90
7194;DHT22;3638;48.820;9.244;2023-03-01T07:50:00;2.00;99.90
7194;DHT22;3638;48.820;9.244;2023-03-01T07:52:28;2.30;99.90
7194;DHT22;3638;48.820;9.244;2023-03-01T07:54:55;2.30;99.90
7194;DHT22;3638;48.820;9.244;2023-03-01T07:57:22;2.40;99.90
7194;DHT22;3638;48.820;9.244;2023-03-01T07:59:49;2.60;99.90
7194;DHT22;3638;48.820;9.244;2023-03-01T08:02:16;2.70;99.90
7194;DHT22;3638;48.820;9.244;2023-03-01T08:04:42;2.90;99.90
7194;DHT22;3638;48.820;9.244;2023-03-01T08:07:11;2.80;99.90
7194;DHT22;3638;48.820;9.244;2023-03-01T08:09:38;2.60;99.90
7194;DHT22;3638;48.820;9.244;2023-03-01T08:12:05;2.70;99.90
7194;DHT22;3638;48.820;9.244;2023-03-01T08:14:32;2.90;99.90
7194;DHT22;3638;48.820;9.244;2023-03-01T08:17:00;2.90;99.90
7194;DHT22;3638;48.820;9.244;2023-03-01T08:21:56;3.00;99.90
7194;DHT22;3638;48.820;9.244;2023-03-01T08:24:25;3.00;99.90
7194;DHT22;3638;48.820;9.244;2023-03-01T08:26:53;3.10;99.90
7194;DHT22;3638;48.820;9.244;2023-03-01T08:29:20;3.00;99.90
7194;DHT22;3638;48.820;9.244;2023-03-01T08:31:48;3.10;99.90
7194;DHT22;3638;48.820;9.244;2023-03-01T08:34:16;3.00;99.90
7194;DHT22;3638;48.820;9.244;2023-03-01T08:36:46;2.90;99.90
7194;DHT22;3638;48.820;9.244;2023-03-01T08:39:14;2.80;99.90
7194;DHT22;3638;48.820;9.244;2023-03-01T08:41:44;3.00;99.90
7194;DHT22;3638;48.820;9.244;2023-03-01T08:44:13;3.20;99.90
7194;DHT22;3638;48.820;9.244;2023-03-01T08:46:42;3.20;99.90
7194;DHT22;3638;48.820;9.244;2023-03-01T08:49:12;2.70;99.90
7194;DHT22;3638;48.820;9.244;2023-03-01T08:51:40;2.60;99.90
7194;DHT22;3638;48.820;9.244;2023-03-01T08:54:10;2.70;99.90
7194;DHT22;3638;48.820;9.244;2023-03-01T08:56:40;2.60;99.90
7194;DHT22;3638;48.820;9.244;2023-03-01T08:59:09;2.80;99.90
7194;DHT22;3638;48.820;9.244;2023-03-01T09:01:36;2.80;99.90
7194;DHT22;3638;48.820;9.244;2023-03-01T09:04:04;2.80;99.90
7194;DHT22;3638;48.820;9.244;2023-03-01T09:06:31;2.90;99.90
7194;DHT22;3638;48.820;9.244;2023-03-01T09:08:59;3.00;99.90
7194;DHT22;3638;48.820;9.244;2023-03-01T09:11:26;3.10;99.90
7194;DHT22;3638;48.820;9.244;2023-03-01T09:13:54;3.10;99.90
7194;DHT22;3638;48.820;9.244;2023-03-01T09:16:23;3.10;99.90
7194;DHT22;3638;48.820;9.244;2023-03-01T09:18:51;3.20;99.90
7194;DHT22;3638;48.820;9.244;2023-03-01T09:21:20;3.30;99.90
7194;DHT22;3638;48.820;9.244;2023-03-01T09:23:49;3.40;99.90
7194;DHT22;3638;48.820;9.244;2023-03-01T09:26:17;3.50;99.90
7194;DHT22;3638;48.820;9.244;2023-03-01T09:28:47;3.50;99.90
7194;DHT22;3638;48.820;9.244;2023-03-01T09:31:14;3.60;99.90
7194;DHT22;3638;48.820;9.244;2023-03-01T09:33:46;3.80;99.90
7194;DHT22;3638;48.820;9.244;2023-03-01T09:36:16;3.70;99.90
7194;DHT22;3638;48.820;9.244;2023-03-01T09:38:44;3.80;99.90
7194;DHT22;3638;48.820;9.244;2023-03-01T09:41:30;3.70;99.90
7194;DHT22;3638;48.820;9.244;2023-03-01T09:44:08;3.70;99.90
7194;DHT22;3638;48.820;9.244;2023-03-01T09:46:44;3.80;99.90
7194;DHT22;3638;48.820;9.244;2023-03-01T09:49:16;4.00;99.90
7194;DHT22;3638;48.820;9.244;2023-03-01T09:51:54;4.10;99.90
7194;DHT22;3638;48.820;9.244;2023-03-01T09:54:23;4.20;99.90
7194;DHT22;3638;48.820;9.244;2023-03-01T09:57:12;4.30;99.90
7194;DHT22;3638;48.820;9.244;2023-03-01T09:59:55;4.40;99.90
7194;DHT22;3638;48.820;9.244;2023-03-01T10:02:38;5.00;99.90
7194;DHT22;3638;48.820;9.244;2023-03-01T10:05:19;5.00;99.90
7194;DHT22;3638;48.820;9.244;2023-03-01T10:08:02;5.10;99.90
7194;DHT22;3638;48.820;9.244;2023-03-01T10:10:44;5.20;99.90
7194;DHT22;3638;48.820;9.244;2023-03-01T10:13:16;5.10;99.90
7194;DHT22;3638;48.820;9.244;2023-03-01T10:15:50;5.10;99.90
7194;DHT22;3638;48.820;9.244;2023-03-01T10:18:22;5.10;99.90
7194;DHT22;3638;48.820;9.244;2023-03-01T10:20:54;5.20;99.90
7194;DHT22;3638;48.820;9.244;2023-03-01T10:23:23;5.20;99.90
7194;DHT22;3638;48.820;9.244;2023-03-01T10:26:21;5.20;99.90
7194;DHT22;3638;48.820;9.244;2023-03-01T10:29:00;5.30;99.90
7194;DHT22;3638;48.820;9.244;2023-03-01T10:31:36;5.30;99.90
7194;DHT22;3638;48.820;9.244;2023-03-01T10:34:13;5.20;99.90
7194;DHT22;3638;48.820;9.244;2023-03-01T10:36:44;5.00;99.90
7194;DHT22;3638;48.820;9.244;2023-03-01T10:39:14;5.00;99.90
7194;DHT22;3638;48.820;9.244;2023-03-01T10:41:55;5.10;99.90
7194;DHT22;3638;48.820;9.244;2023-03-01T10:44:41;5.30;99.90
7194;DHT22;3638;48.820;9.244;2023-03-01T10:47:20;5.50;99.90
7194;DHT22;3638;48.820;9.244;2023-03-01T10:49:53;5.40;99.90
7194;DHT22;3638;48.820;9.244;2023-03-01T10:52:31;5.50;99.90
7194;DHT22;3638;48.820;9.244;2023-03-01T10:55:03;5.50;99.90
7194;DHT22;3638;48.820;9.244;2023-03-01T10:57:43;5.50;99.90
7194;DHT22;3638;48.820;9.244;2023-03-01T11:00:23;5.50;99.90
7194;DHT22;3638;48.820;9.244;2023-03-01T11:03:03;5.60;99.90
7194;DHT22;3638;48.820;9.244;2023-03-01T11:05:57;5.50;99.90
7194;DHT22;3638;48.820;9.244;2023-03-01T11:08:39;5.60;99.90
7194;DHT22;3638;48.820;9.244;2023-03-01T11:11:28;5.80;99.90
7194;DHT22;3638;48.820;9.244;2023-03-01T11:13:59;5.80;99.90
7194;DHT22;3638;48.820;9.244;2023-03-01T11:16:30;5.60;99.90
7194;DHT22;3638;48.820;9.244;2023-03-01T11:21:50;5.90;99.90
7194;DHT22;3638;48.820;9.244;2023-03-01T11:24:26;6.00;99.90
7194;DHT22;3638;48.820;9.244;2023-03-01T11:26:59;6.20;99.90
7194;DHT22;3638;48.820;9.244;2023-03-01T11:29:34;6.10;99.90
7194;DHT22;3638;48.820;9.244;2023-03-01T11:32:06;6.30;99.90
7194;DHT22;3638;48.820;9.244;2023-03-01T11:34:42;6.30;99.90
7194;DHT22;3638;48.820;9.244;2023-03-01T11:37:31;6.40;99.90
7194;DHT22;3638;48.820;9.244;2023-03-01T11:40:10;6.40;99.90
7194;DHT22;3638;48.820;9.244;2023-03-01T11:42:52;6.20;99.90
7194;DHT22;3638;48.820;9.244;2023-03-01T11:45:24;6.10;99.90
7194;DHT22;3638;48.820;9.244;2023-03-01T11:48:18;6.00;99.90
7194;DHT22;3638;48.820;9.244;2023-03-01T11:51:09;6.20;99.90
7194;DHT22;3638;48.820;9.244;2023-03-01T11:53:54;6.40;99.90
7194;DHT22;3638;48.820;9.244;2023-03-01T11:56:32;6.40;99.90
7194;DHT22;3638;48.820;9.244;2023-03-01T11:59:20;6.60;99.90
7194;DHT22;3638;48.820;9.244;2023-03-01T12:02:12;6.70;99.90
7194;DHT22;3638;48.820;9.244;2023-03-01T12:05:02;6.80;99.60
7194;DHT22;3638;48.820;9.244;2023-03-01T12:07:44;6.80;99.40
7194;DHT22;3638;48.820;9.244;2023-03-01T12:10:23;6.80;99.60
7194;DHT22;3638;48.820;9.244;2023-03-01T12:13:16;6.70;99.60
7194;DHT22;3638;48.820;9.244;2023-03-01T12:16:07;6.70;99.90
7194;DHT22;3638;48.820;9.244;2023-03-01T12:18:51;6.80;99.60
7194;DHT22;3638;48.820;9.244;2023-03-01T12:21:34;6.90;99.40
7194;DHT22;3638;48.820;9.244;2023-03-01T12:24:28;7.00;99.00
7194;DHT22;3638;48.820;9.244;2023-03-01T12:27:28;7.00;99.30
7194;DHT22;3638;48.820;9.244;2023-03-01T12:30:20;7.20;99.50
7194;DHT22;3638;48.820;9.244;2023-03-01T12:33:01;7.40;98.30
7194;DHT22;3638;48.820;9.244;2023-03-01T12:35:59;7.40;98.30
7194;DHT22;3638;48.820;9.244;2023-03-01T12:38:41;7.50;98.20
7194;DHT22;3638;48.820;9.244;2023-03-01T12:44:25;7.50;98.40
7194;DHT22;3638;48.820;9.244;2023-03-01T12:47:07;7.50;97.50
7194;DHT22;3638;48.820;9.244;2023-03-01T12:49:44;7.50;97.80
7194;DHT22;3638;48.820;9.244;2023-03-01T12:52:16;7.50;97.60
7194;DHT22;3638;48.820;9.244;2023-03-01T12:54:46;7.50;97.60
7194;DHT22;3638;48.820;9.244;2023-03-01T12:57:18;7.60;97.90
7194;DHT22;3638;48.820;9.244;2023-03-01T12:59:55;7.50;97.70
7194;DHT22;3638;48.820;9.244;2023-03-01T13:02:38;7.70;97.30
7194;DHT22;3638;48.820;9.244;2023-03-01T13:05:23;7.70;97.60
7194;DHT22;3638;48.820;9.244;2023-03-01T13:07:57;7.80;97.60
7194;DHT22;3638;48.820;9.244;2023-03-01T13:10:31;7.80;97.00
7194;DHT22;3638;48.820;9.244;2023-03-01T13:13:08;7.80;96.50
7194;DHT22;3638;48.820;9.244;2023-03-01T13:15:40;7.80;96.70
7194;DHT22;3638;48.820;9.244;2023-03-01T13:18:29;7.70;97.70
7194;DHT22;3638;48.820;9.244;2023-03-01T13:21:00;7.80;97.10
7194;DHT22;3638;48.820;9.244;2023-03-01T13:26:09;8.00;96.40
7194;DHT22;3638;48.820;9.244;2023-03-01T13:28:53;8.00;96.60
7194;DHT22;3638;48.820;9.244;2023-03-01T13:34:48;8.00;97.10
7194;DHT22;3638;48.820;9.244;2023-03-01T13:37:34;8.00;97.00
7194;DHT22;3638;48.820;9.244;2023-03-01T13:43:30;7.80;96.90
7194;DHT22;3638;48.820;9.244;2023-03-01T13:46:00;7.70;97.00
7194;DHT22;3638;48.820;9.244;2023-03-01T13:48:29;7.70;97.50
7194;DHT22;3638;48.820;9.244;2023-03-01T13:51:00;7.70;97.80
7194;DHT22;3638;48.820;9.244;2023-03-01T13:53:33;7.80;97.40
7194;DHT22;3638;48.820;9.244;2023-03-01T13:56:07;7.90;97.60
7194;DHT22;3638;48.820;9.244;2023-03-01T13:58:47;7.90;97.30
7194;DHT22;3638;48.820;9.244;2023-03-01T14:01:25;7.80;97.50
7194;DHT22;3638;48.820;9.244;2023-03-01T14:03:54;7.80;97.60
7194;DHT22;3638;48.820;9.244;2023-03-01T14:06:27;7.80;97.30
7194;DHT22;3638;48.820;9.244;2023-03-01T14:09:03;9.40;98.30
7194;DHT22;3638;48.820;9.244;2023-03-01T14:12:02;7.80;98.10
7194;DHT22;3638;48.820;9.244;2023-03-01T14:14:54;7.80;97.60
7194;DHT22;3638;48.820;9.244;2023-03-01T14:17:42;7.70;97.80
7194;DHT22;3638;48.820;9.244;2023-03-01T14:20:17;7.70;97.60
7194;DHT22;3638;48.820;9.244;2023-03-01T14:22:49;7.80;97.90
7194;DHT22;3638;48.820;9.244;2023-03-01T14:25:20;7.90;97.50
7194;DHT22;3638;48.820;9.244;2023-03-01T14:28:00;7.60;97.20
7194;DHT22;3638;48.820;9.244;2023-03-01T14:30:33;7.70;97.70
7194;DHT22;3638;48.820;9.244;2023-03-01T14:33:03;7.70;98.10
7194;DHT22;3638;48.820;9.244;2023-03-01T14:35:34;7.70;98.10
7194;DHT22;3638;48.820;9.244;2023-03-01T14:38:04;7.70;97.60
7194;DHT22;3638;48.820;9.244;2023-03-01T14:40:33;7.80;98.10
7194;DHT22;3638;48.820;9.244;2023-03-01T14:43:03;7.90;97.10
7194;DHT22;3638;48.820;9.244;2023-03-01T14:45:35;7.80;97.30
7194;DHT22;3638;48.820;9.244;2023-03-01T14:48:04;7.80;97.70
7194;DHT22;3638;48.820;9.244;2023-03-01T14:50:34;7.70;97.50
7194;DHT22;3638;48.820;9.244;2023-03-01T14:53:05;7.90;97.70
7194;DHT22;3638;48.820;9.244;2023-03-01T14:55:35;7.80;97.20
7194;DHT22;3638;48.820;9.244;2023-03-01T14:58:09;7.90;97.40
7194;DHT22;3638;48.820;9.244;2023-03-01T15:00:39;7.90;97.70
7194;DHT22;3638;48.820;9.244;2023-03-01T15:03:13;8.00;97.40
7194;DHT22;3638;48.820;9.244;2023-03-01T15:05:43;7.90;97.50
7194;DHT22;3638;48.820;9.244;2023-03-01T15:08:18;7.90;97.40
7194;DHT22;3638;48.820;9.244;2023-03-01T15:11:01;7.90;97.70
7194;DHT22;3638;48.820;9.244;2023-03-01T15:13:31;7.70;98.00
7194;DHT22;3638;48.820;9.244;2023-03-01T15:16:06;7.80;97.70
7194;DHT22;3638;48.820;9.244;2023-03-01T15:18:35;7.90;97.60
7194;DHT22;3638;48.820;9.244;2023-03-01T15:21:07;7.90;97.60
7194;DHT22;3638;48.820;9.244;2023-03-01T15:23:38;7.80;97.40
7194;DHT22;3638;48.820;9.244;2023-03-01T15:26:16;7.80;97.60
7194;DHT22;3638;48.820;9.244;2023-03-01T15:28:50;7.80;97.40
7194;DHT22;3638;48.820;9.244;2023-03-01T15:31:21;7.70;97.00
7194;DHT22;3638;48.820;9.244;2023-03-01T15:36:39;7.70;97.40
7194;DHT22;3638;48.820;9.244;2023-03-01T15:39:30;7.70;96.90
7194;DHT22;3638;48.820;9.244;2023-03-01T15:42:03;7.70;96.60
7194;DHT22;3638;48.820;9.244;2023-03-01T15:44:33;7.70;96.80
7194;DHT22;3638;48.820;9.244;2023-03-01T15:47:01;7.60;96.40
7194;DHT22;3638;48.820;9.244;2023-03-01T15:49:38;7.50;96.70
7194;DHT22;3638;48.820;9.244;2023-03-01T15:52:10;7.50;96.90
7194;DHT22;3638;48.820;9.244;2023-03-01T15:54:56;7.50;96.60
7194;DHT22;3638;48.820;9.244;2023-03-01T15:57:24;7.60;97.20
7194;DHT22;3638;48.820;9.244;2023-03-01T15:59:51;7.50;96.90
7194;DHT22;3638;48.820;9.244;2023-03-01T16:04:46;7.50;96.50
7194;DHT22;3638;48.820;9.244;2023-03-01T16:07:14;7.50;96.60
7194;DHT22;3638;48.820;9.244;2023-03-01T16:12:14;7.40;96.20
7194;DHT22;3638;48.820;9.244;2023-03-01T16:14:42;7.40;96.50
7194;DHT22;3638;48.820;9.244;2023-03-01T16:17:09;7.40;96.90
7194;DHT22;3638;48.820;9.244;2023-03-01T16:19:36;7.40;96.60
7194;DHT22;3638;48.820;9.244;2023-03-01T16:22:04;7.40;97.00
7194;DHT22;3638;48.820;9.244;2023-03-01T16:24:37;7.40;96.90
7194;DHT22;3638;48.820;9.244;2023-03-01T16:27:05;7.40;97.10
7194;DHT22;3638;48.820;9.244;2023-03-01T16:29:34;7.30;97.30
7194;DHT22;3638;48.820;9.244;2023-03-01T16:32:02;7.40;97.20
7194;DHT22;3638;48.820;9.244;2023-03-01T16:34:29;7.30;97.20
7194;DHT22;3638;48.820;9.244;2023-03-01T16:36:56;7.20;97.30
7194;DHT22;3638;48.820;9.244;2023-03-01T16:39:23;7.20;97.30
7194;DHT22;3638;48.820;9.244;2023-03-01T16:41:50;7.10;97.30
7194;DHT22;3638;48.820;9.244;2023-03-01T16:44:16;7.10;97.10
7194;DHT22;3638;48.820;9.244;2023-03-01T16:49:12;7.00;97.10
7194;DHT22;3638;48.820;9.244;2023-03-01T16:51:39;7.00;97.80
7194;DHT22;3638;48.820;9.244;2023-03-01T16:54:06;7.00;98.20
7194;DHT22;3638;48.820;9.244;2023-03-01T16:56:33;6.90;98.00
7194;DHT22;3638;48.820;9.244;2023-03-01T16:59:02;6.80;98.20
7194;DHT22;3638;48.820;9.244;2023-03-01T17:01:31;6.80;98.40
7194;DHT22;3638;48.820;9.244;2023-03-01T17:04:04;6.70;98.20
7194;DHT22;3638;48.820;9.244;2023-03-01T17:06:31;6.60;98.30
7194;DHT22;3638;48.820;9.244;2023-03-01T17:08:59;6.30;98.80
7194;DHT22;3638;48.820;9.244;2023-03-01T17:11:26;6.30;98.90
7194;DHT22;3638;48.820;9.244;2023-03-01T17:13:53;6.10;99.60